Time;durP1;ratioP1;P1;durP2;ratioP2;P2;SDS_P1;SDS_P2;PMS_P1;PMS_P2;Temp;Humidity;BMP_temperature;BMP_pressure;BME280_temperature;BME280_humidity;BME280_pressure;Samples;Min_cycle;Max_cycle;Signal;HPM_P1;HPM_P2
2023/05/01 00:01:32;;;;;;;;;;;;;;;26.53;42.49;94066.53;4915664;29;7367;-56
2023/05/01 00:04:11;;;;;;;;;;;;;;;26.52;42.33;94062.28;4909853;29;7627;-56
2023/05/01 00:06:48;;;;;;;;;;;;;;;26.51;42.07;94060.78;4928873;28;9371;-56
2023/05/01 00:09:26;;;;;;;;;;;;;;;26.51;42.46;94061.53;4939055;28;9108;-56
2023/05/01 00:12:05;;;;;;;;;;;;;;;26.48;42.26;94056.31;4924688;29;7028;-56
2023/05/01 00:14:43;;;;;;;;;;;;;;;26.51;41.97;94053.25;4929752;29;8976;-56
2023/05/01 00:17:27;;;;;;;;;;;;;;;26.50;42.13;94049.00;4928308;28;7153;-56
2023/05/01 00:20:24;;;;;;;;;;;;;;;26.50;42.72;94053.78;4935515;29;8794;-56
2023/05/01 00:22:51;;;;;;;;;;;;;;;26.50;42.72;94051.03;4921449;29;9082;-56
2023/05/01 00:29:07;;;;;;;;;;;;;;;26.54;42.80;94048.69;4936889;28;6797;-55
2023/05/01 00:32:02;;;;;;;;;;;;;;;26.55;42.14;94052.97;4935439;29;9054;-56
2023/05/01 00:35:00;;;;;;;;;;;;;;;26.53;41.98;94042.47;4943216;28;7033;-56
2023/05/01 00:37:58;;;;;;;;;;;;;;;26.54;41.90;94045.94;4993343;28;9073;-56
2023/05/01 00:40:58;;;;;;;;;;;;;;;26.54;42.06;94048.69;5000347;28;8736;-56
2023/05/01 00:43:36;;;;;;;;;;;;;;;26.53;42.27;94038.94;5045071;28;7052;-56
2023/05/01 00:46:37;;;;;;;;;;;;;;;26.55;41.99;94047.44;5030149;28;7146;-56
2023/05/01 00:52:42;;;;;;;;;;;;;;;26.51;42.34;94039.44;5033790;28;7306;-56
2023/05/01 00:55:16;;;;;;;;;;;;;;;26.52;42.39;94040.19;5030445;28;7023;-56
2023/05/01 00:57:49;;;;;;;;;;;;;;;26.52;42.81;94034.69;5021983;28;7255;-56
2023/05/01 01:00:23;;;;;;;;;;;;;;;26.52;42.24;94037.44;5038612;28;7549;-56
2023/05/01 01:02:55;;;;;;;;;;;;;;;26.53;42.15;94033.44;5015219;28;8631;-56
2023/05/01 01:05:45;;;;;;;;;;;;;;;26.52;42.32;94035.44;5023640;28;7587;-56
2023/05/01 01:09:00;;;;;;;;;;;;;;;26.52;42.08;94034.69;5034836;28;7246;-56
2023/05/01 01:15:26;;;;;;;;;;;;;;;26.51;42.23;94017.38;5001394;28;7263;-56
2023/05/01 01:18:33;;;;;;;;;;;;;;;26.51;42.04;94017.38;4980081;28;8851;-56
2023/05/01 01:21:20;;;;;;;;;;;;;;;26.51;42.27;94019.44;4979684;28;7170;-56
2023/05/01 01:27:55;;;;;;;;;;;;;;;26.54;42.40;94015.59;4924081;29;7062;-56
2023/05/01 01:31:17;;;;;;;;;;;;;;;26.53;41.78;94014.88;4928967;29;7163;-56
2023/05/01 01:34:06;;;;;;;;;;;;;;;26.51;42.10;94008.41;4915065;29;7052;-56
2023/05/01 01:36:50;;;;;;;;;;;;;;;26.52;42.40;94012.63;4925948;29;8568;-56
2023/05/01 01:39:58;;;;;;;;;;;;;;;26.53;42.10;94011.38;4925992;29;8902;-56
2023/05/01 01:42:33;;;;;;;;;;;;;;;26.53;42.30;94003.09;4913424;29;8744;-56
2023/05/01 01:45:11;;;;;;;;;;;;;;;26.54;41.96;94010.84;4914218;29;8844;-56
2023/05/01 01:47:50;;;;;;;;;;;;;;;26.55;42.10;94009.56;4945948;28;8742;-56
2023/05/01 01:50:32;;;;;;;;;;;;;;;26.54;42.52;94010.84;4977682;28;7068;-56
2023/05/01 01:53:14;;;;;;;;;;;;;;;26.54;42.09;94013.59;4949297;28;8884;-56
2023/05/01 01:55:46;;;;;;;;;;;;;;;26.48;42.28;94001.91;4956600;28;9421;-56
2023/05/01 01:58:16;;;;;;;;;;;;;;;26.53;42.01;94008.59;4944992;28;9021;-56
2023/05/01 02:00:44;;;;;;;;;;;;;;;26.55;42.33;94003.31;4954008;28;9026;-56
2023/05/01 02:03:13;;;;;;;;;;;;;;;26.53;42.29;94000.34;4953756;28;7541;-55
2023/05/01 02:05:51;;;;;;;;;;;;;;;26.54;41.91;93999.81;5028488;28;7151;-56
2023/05/01 02:08:50;;;;;;;;;;;;;;;26.55;41.90;94003.31;5017895;28;7003;-56
2023/05/01 02:11:30;;;;;;;;;;;;;;;26.54;42.50;94002.56;5022140;28;7202;-56
2023/05/01 02:14:20;;;;;;;;;;;;;;;26.53;42.51;94005.84;5032713;28;7112;-56
2023/05/01 02:16:51;;;;;;;;;;;;;;;26.54;42.50;94007.31;5032775;28;8688;-56
2023/05/01 02:19:39;;;;;;;;;;;;;;;26.55;42.08;94000.56;5024581;28;8848;-56
2023/05/01 02:22:09;;;;;;;;;;;;;;;26.55;42.44;94006.06;5018036;28;9222;-56
2023/05/01 02:24:45;;;;;;;;;;;;;;;26.54;41.72;93999.06;5047673;28;7047;-56
2023/05/01 02:28:05;;;;;;;;;;;;;;;26.54;41.83;93999.81;5029184;28;7138;-56
2023/05/01 02:31:23;;;;;;;;;;;;;;;26.56;42.24;93999.25;4995723;28;8748;-56
2023/05/01 02:34:08;;;;;;;;;;;;;;;26.56;42.45;93996.50;4999908;28;7008;-56
2023/05/01 02:36:44;;;;;;;;;;;;;;;26.55;42.34;93995.78;5000257;28;7175;-56
2023/05/01 02:39:27;;;;;;;;;;;;;;;26.54;42.34;93991.53;5002925;28;7271;-56
2023/05/01 02:42:08;;;;;;;;;;;;;;;26.52;42.47;93994.06;5006572;28;8918;-56
2023/05/01 02:48:21;;;;;;;;;;;;;;;26.52;41.95;93985.03;4957032;28;7251;-56
2023/05/01 02:51:00;;;;;;;;;;;;;;;26.48;42.41;93982.59;4966169;28;8694;-56
2023/05/01 02:53:36;;;;;;;;;;;;;;;26.50;42.00;93982.06;4949680;28;9522;-56
2023/05/01 02:56:32;;;;;;;;;;;;;;;26.51;42.00;93981.53;4950451;28;7233;-56
2023/05/01 02:59:10;;;;;;;;;;;;;;;26.48;42.06;93982.59;4956911;28;9208;-56
2023/05/01 03:01:50;;;;;;;;;;;;;;;26.50;42.34;93982.81;4959766;28;9154;-56
2023/05/01 03:04:26;;;;;;;;;;;;;;;26.47;41.94;93972.84;4951191;28;7259;-56
2023/05/01 03:07:10;;;;;;;;;;;;;;;26.48;41.96;93976.34;4938399;28;7487;-56
2023/05/01 03:09:45;;;;;;;;;;;;;;;26.50;42.28;93979.31;4939527;28;7123;-56
2023/05/01 03:12:35;;;;;;;;;;;;;;;26.50;41.77;93982.06;4946812;28;7210;-56
2023/05/01 03:15:02;;;;;;;;;;;;;;;26.50;41.96;93982.06;4942497;28;7853;-56
2023/05/01 03:17:43;;;;;;;;;;;;;;;26.49;42.03;93980.59;4939722;28;7597;-56
2023/05/01 03:20:31;;;;;;;;;;;;;;;26.48;41.94;93984.63;4940180;28;8640;-56
2023/05/01 03:23:37;;;;;;;;;;;;;;;26.48;41.78;93981.84;4999406;28;7092;-56
2023/05/01 03:26:18;;;;;;;;;;;;;;;26.48;42.13;93984.63;5040233;28;9004;-56
2023/05/01 03:28:51;;;;;;;;;;;;;;;26.47;42.39;93972.84;5032659;28;7304;-56
2023/05/01 03:31:19;;;;;;;;;;;;;;;26.51;42.26;93984.28;5039783;28;7084;-56
2023/05/01 03:33:45;;;;;;;;;;;;;;;26.50;42.37;93979.31;5017884;28;7030;-56
2023/05/01 03:36:13;;;;;;;;;;;;;;;26.49;42.41;93980.59;5030813;28;7250;-56
2023/05/01 03:38:41;;;;;;;;;;;;;;;26.48;42.13;93982.59;5022569;28;7037;-56
2023/05/01 03:41:24;;;;;;;;;;;;;;;26.49;42.00;93975.09;5041393;28;7435;-56
2023/05/01 03:47:30;;;;;;;;;;;;;;;26.51;42.29;93980.81;5025876;28;9326;-56
2023/05/01 03:50:47;;;;;;;;;;;;;;;26.50;42.10;93976.56;5016261;28;7296;-56
2023/05/01 03:53:25;;;;;;;;;;;;;;;26.48;42.40;93979.84;4985118;28;9296;-55
2023/05/01 03:56:00;;;;;;;;;;;;;;;26.47;42.65;93975.59;4973894;28;7272;-56
2023/05/01 03:58:27;;;;;;;;;;;;;;;26.46;42.22;93978.88;4978073;28;7796;-56
2023/05/01 04:01:23;;;;;;;;;;;;;;;26.48;41.69;93979.84;4977616;28;7259;-56
2023/05/01 04:04:02;;;;;;;;;;;;;;;26.44;41.88;93976.66;4931045;28;8945;-56
2023/05/01 04:06:54;;;;;;;;;;;;;;;26.47;42.25;93983.13;4930778;28;9111;-56
2023/05/01 04:09:36;;;;;;;;;;;;;;;26.46;41.82;93974.13;4953939;28;8713;-55
2023/05/01 04:12:11;;;;;;;;;;;;;;;26.46;42.00;93978.88;4935428;28;9037;-55
2023/05/01 04:14:48;;;;;;;;;;;;;;;26.46;41.76;93984.41;4940973;28;7391;-56
2023/05/01 04:17:38;;;;;;;;;;;;;;;26.46;41.74;93978.88;4938702;28;9094;-56
2023/05/01 04:20:06;;;;;;;;;;;;;;;26.47;42.04;93991.41;4936757;28;7285;-56
2023/05/01 04:22:44;;;;;;;;;;;;;;;26.46;42.50;93987.16;4925029;29;9344;-56
2023/05/01 04:25:10;;;;;;;;;;;;;;;26.45;41.93;93986.41;4951410;28;7302;-56
2023/05/01 04:27:38;;;;;;;;;;;;;;;26.45;41.71;93991.91;4950919;28;7549;-56
2023/05/01 04:30:07;;;;;;;;;;;;;;;26.45;42.37;93985.66;4980397;28;7022;-56
2023/05/01 04:32:34;;;;;;;;;;;;;;;26.44;42.48;93989.69;4976302;28;7033;-56
2023/05/01 04:35:01;;;;;;;;;;;;;;;26.42;42.56;93989.47;4982871;28;7054;-56
2023/05/01 04:37:39;;;;;;;;;;;;;;;26.43;42.18;93988.94;4983348;28;7276;-56
2023/05/01 04:40:31;;;;;;;;;;;;;;;26.45;42.56;93999.44;4982289;28;7046;-56
2023/05/01 04:43:08;;;;;;;;;;;;;;;26.44;41.92;94000.72;5015187;28;7150;-56
2023/05/01 04:45:47;;;;;;;;;;;;;;;26.44;42.20;94001.47;5030696;28;9077;-56
2023/05/01 04:48:19;;;;;;;;;;;;;;;26.44;42.60;94009.75;5028311;28;7328;-56
2023/05/01 04:50:50;;;;;;;;;;;;;;;26.45;42.68;94002.94;5044508;28;9044;-56
2023/05/01 04:53:35;;;;;;;;;;;;;;;26.45;41.76;94002.94;5018379;28;7821;-56
2023/05/01 04:56:02;;;;;;;;;;;;;;;26.46;42.52;94000.94;5042728;28;7171;-56
2023/05/01 04:58:54;;;;;;;;;;;;;;;26.45;42.53;94007.72;5026908;28;9024;-56
2023/05/01 05:01:34;;;;;;;;;;;;;;;26.45;42.51;94013.22;5017182;28;8611;-56
2023/05/01 05:04:04;;;;;;;;;;;;;;;26.46;41.65;94014.72;5040961;28;7030;-56
2023/05/01 05:06:59;;;;;;;;;;;;;;;26.44;42.22;94014.50;5013532;28;7361;-56
2023/05/01 05:09:28;;;;;;;;;;;;;;;26.43;42.46;94016.53;4975072;28;8269;-56
2023/05/01 05:12:07;;;;;;;;;;;;;;;26.41;42.54;94018.31;4992724;28;7124;-56
2023/05/01 05:14:37;;;;;;;;;;;;;;;26.44;42.07;94018.03;4984581;28;7260;-56
2023/05/01 05:17:03;;;;;;;;;;;;;;;26.45;42.30;94018.75;4996956;28;7068;-56
2023/05/01 05:19:36;;;;;;;;;;;;;;;26.44;42.38;94022.78;4988122;28;7877;-56
2023/05/01 05:22:02;;;;;;;;;;;;;;;26.42;42.59;94019.81;4982249;28;9319;-55
2023/05/01 05:24:45;;;;;;;;;;;;;;;26.43;42.55;94027.56;4984274;28;7198;-55
2023/05/01 05:27:22;;;;;;;;;;;;;;;26.39;42.48;94020.84;4981983;28;9198;-55
2023/05/01 05:29:49;;;;;;;;;;;;;;;26.41;42.70;94021.06;4995389;28;6952;-56
2023/05/01 05:32:17;;;;;;;;;;;;;;;26.39;43.16;94018.09;4987626;28;9067;-56
2023/05/01 05:34:43;;;;;;;;;;;;;;;26.42;42.94;94025.34;4977802;28;7801;-56
2023/05/01 05:37:09;;;;;;;;;;;;;;;26.41;43.14;94026.59;4995577;28;7624;-56
2023/05/01 05:39:45;;;;;;;;;;;;;;;26.40;42.84;94033.38;4997380;28;7120;-56
2023/05/01 05:42:28;;;;;;;;;;;;;;;26.45;42.62;94032.53;4977456;28;7271;-56
2023/05/01 05:45:17;;;;;;;;;;;;;;;26.40;43.21;94034.13;4985130;28;9046;-56
2023/05/01 05:47:43;;;;;;;;;;;;;;;26.40;42.54;94034.13;5027677;28;9113;-56
2023/05/01 05:50:09;;;;;;;;;;;;;;;26.40;42.62;94033.38;5030942;28;7168;-56
2023/05/01 05:52:35;;;;;;;;;;;;;;;26.42;42.02;94036.34;5027485;28;9030;-56
2023/05/01 05:55:06;;;;;;;;;;;;;;;26.44;42.32;94034.56;5025412;28;7247;-56
2023/05/01 05:57:39;;;;;;;;;;;;;;;26.43;42.37;94033.06;5022139;28;7266;-56
2023/05/01 06:00:13;;;;;;;;;;;;;;;26.43;42.68;94032.31;5019872;28;7220;-56
2023/05/01 06:02:41;;;;;;;;;;;;;;;26.44;42.68;94039.34;5031852;28;8749;-56
2023/05/01 06:05:12;;;;;;;;;;;;;;;26.43;41.99;94033.06;5032651;28;7156;-56
2023/05/01 06:07:40;;;;;;;;;;;;;;;26.44;42.63;94037.31;5038311;28;8537;-56
2023/05/01 06:10:07;;;;;;;;;;;;;;;26.42;42.58;94036.34;5021174;28;9034;-56
2023/05/01 06:12:33;;;;;;;;;;;;;;;26.44;42.86;94033.81;5028143;28;7080;-56
2023/05/01 06:14:59;;;;;;;;;;;;;;;26.45;42.31;94033.28;5025553;28;9614;-56
2023/05/01 06:17:25;;;;;;;;;;;;;;;26.46;42.42;94039.56;5029699;28;7380;-57
2023/05/01 06:19:52;;;;;;;;;;;;;;;26.45;42.43;94036.03;5030188;28;9172;-56
2023/05/01 06:22:25;;;;;;;;;;;;;;;26.46;42.81;94025.75;5020460;28;7183;-56
2023/05/01 06:25:00;;;;;;;;;;;;;;;26.48;42.51;94034.25;5025738;28;9154;-56
2023/05/01 06:27:36;;;;;;;;;;;;;;;26.46;42.11;94032.03;5021200;28;9088;-56
2023/05/01 06:30:05;;;;;;;;;;;;;;;26.47;42.42;94032.78;5036976;28;8970;-56
2023/05/01 06:32:40;;;;;;;;;;;;;;;26.47;43.01;94039.03;5030515;28;7306;-56
2023/05/01 06:35:08;;;;;;;;;;;;;;;26.46;42.40;94026.50;5023471;28;9550;-56
2023/05/01 06:37:44;;;;;;;;;;;;;;;26.48;42.58;94029.50;5023679;28;9104;-56
2023/05/01 06:40:33;;;;;;;;;;;;;;;26.45;42.31;94036.03;5015991;28;7586;-56
2023/05/01 06:43:16;;;;;;;;;;;;;;;26.43;42.76;94038.59;5019305;28;9046;-56
2023/05/01 06:45:50;;;;;;;;;;;;;;;26.45;42.77;94041.56;5019355;28;7035;-56
2023/05/01 06:48:21;;;;;;;;;;;;;;;26.45;42.91;94036.03;5026189;28;9011;-56
2023/05/01 06:51:03;;;;;;;;;;;;;;;26.46;42.61;94037.53;5020150;28;7163;-56
2023/05/01 06:53:29;;;;;;;;;;;;;;;26.44;42.38;94036.56;5035654;28;9599;-56
2023/05/01 06:56:00;;;;;;;;;;;;;;;26.44;42.51;94040.09;5022337;28;7225;-56
2023/05/01 06:58:28;;;;;;;;;;;;;;;26.45;42.98;94044.31;5023208;28;9044;-56
2023/05/01 07:01:01;;;;;;;;;;;;;;;26.44;42.27;94045.59;5020540;28;7042;-56
2023/05/01 07:03:40;;;;;;;;;;;;;;;26.41;42.91;94045.88;5028866;28;7218;-56
2023/05/01 07:06:16;;;;;;;;;;;;;;;26.43;43.25;94048.88;5040956;28;9232;-56
2023/05/01 07:08:44;;;;;;;;;;;;;;;26.43;43.36;94051.63;5028789;28;7506;-55
2023/05/01 07:11:13;;;;;;;;;;;;;;;26.44;42.30;94051.13;5030453;28;9062;-56
2023/05/01 07:13:42;;;;;;;;;;;;;;;26.43;42.78;94046.84;5045379;28;7206;-56
2023/05/01 07:16:19;;;;;;;;;;;;;;;26.40;43.27;94044.41;5032217;28;8951;-55
2023/05/01 07:18:46;;;;;;;;;;;;;;;26.43;42.94;94055.13;5035191;28;9430;-56
2023/05/01 07:21:21;;;;;;;;;;;;;;;26.45;43.07;94054.59;5029577;28;8997;-57
2023/05/01 07:24:20;;;;;;;;;;;;;;;26.45;43.46;94047.06;5021450;28;8953;-55
2023/05/01 07:26:48;;;;;;;;;;;;;;;26.44;43.00;94051.13;5026601;28;9047;-56
2023/05/01 07:29:30;;;;;;;;;;;;;;;26.49;42.41;94049.53;5025566;28;9150;-56
2023/05/01 07:32:11;;;;;;;;;;;;;;;26.45;42.32;94049.84;5027407;28;10105;-56
2023/05/01 07:34:44;;;;;;;;;;;;;;;26.44;42.28;94053.88;5029102;28;9006;-56
2023/05/01 07:37:17;;;;;;;;;;;;;;;26.46;42.16;94053.34;5027982;28;7260;-56
2023/05/01 07:39:58;;;;;;;;;;;;;;;26.43;41.83;94049.63;5031579;28;9037;-56
2023/05/01 07:42:51;;;;;;;;;;;;;;;26.41;42.37;94054.16;5024523;28;8795;-56
2023/05/01 07:45:17;;;;;;;;;;;;;;;26.41;42.59;94051.41;5026117;28;9143;-57
2023/05/01 07:47:44;;;;;;;;;;;;;;;26.40;42.67;94053.44;5026284;28;7510;-56
2023/05/01 07:50:16;;;;;;;;;;;;;;;26.42;42.79;94059.16;5026184;28;7026;-56
2023/05/01 07:52:42;;;;;;;;;;;;;;;26.42;42.93;94056.41;5030034;28;7262;-56
2023/05/01 07:55:12;;;;;;;;;;;;;;;26.41;42.51;94056.91;5029074;28;9024;-56
2023/05/01 07:57:57;;;;;;;;;;;;;;;26.43;43.12;94057.13;5024227;28;7110;-56
2023/05/01 08:00:38;;;;;;;;;;;;;;;26.44;42.29;94056.63;5031765;28;7224;-56
2023/05/01 08:03:10;;;;;;;;;;;;;;;26.43;42.23;94065.41;5022230;28;9198;-56
2023/05/01 08:05:38;;;;;;;;;;;;;;;26.43;42.39;94071.69;5027954;28;9375;-56
2023/05/01 08:08:05;;;;;;;;;;;;;;;26.41;42.80;94057.66;5032430;28;7024;-56
2023/05/01 08:10:34;;;;;;;;;;;;;;;26.46;43.17;94067.13;5031558;28;8631;-56
2023/05/01 08:13:04;;;;;;;;;;;;;;;26.48;42.93;94070.09;5037929;28;8368;-56
2023/05/01 08:15:54;;;;;;;;;;;;;;;26.48;42.60;94072.88;5035296;28;8686;-56
2023/05/01 08:18:20;;;;;;;;;;;;;;;26.47;43.22;94071.41;5023232;28;7844;-56
2023/05/01 08:20:49;;;;;;;;;;;;;;;26.46;42.99;94078.16;5024506;28;7156;-56
2023/05/01 08:23:16;;;;;;;;;;;;;;;26.45;42.52;94076.66;5023392;28;7151;-56
2023/05/01 08:25:49;;;;;;;;;;;;;;;26.46;43.27;94080.91;5024184;28;7497;-56
2023/05/01 08:28:22;;;;;;;;;;;;;;;26.48;42.64;94072.88;5022648;28;7192;-56
2023/05/01 08:31:02;;;;;;;;;;;;;;;26.49;43.13;94079.88;5026835;28;9368;-56
2023/05/01 08:33:36;;;;;;;;;;;;;;;26.50;42.50;94081.34;5029123;28;9372;-55
2023/05/01 08:36:09;;;;;;;;;;;;;;;26.48;42.66;94079.13;5016884;28;7208;-56
2023/05/01 08:38:48;;;;;;;;;;;;;;;26.47;42.75;94082.41;5024628;28;7256;-62
2023/05/01 08:41:27;;;;;;;;;;;;;;;26.46;43.29;94080.91;5018874;28;7509;-64
2023/05/01 08:44:25;;;;;;;;;;;;;;;26.54;43.08;94087.31;5025837;28;7443;-64
2023/05/01 08:47:21;;;;;;;;;;;;;;;26.53;42.26;94085.84;5019230;28;7516;-64
2023/05/01 08:49:58;;;;;;;;;;;;;;;26.49;42.30;94079.88;5002934;28;7381;-64
2023/05/01 08:52:27;;;;;;;;;;;;;;;26.48;42.80;94089.41;5007734;28;7036;-64
2023/05/01 08:55:03;;;;;;;;;;;;;;;26.46;43.06;94089.19;5013857;28;7067;-64
2023/05/01 08:57:32;;;;;;;;;;;;;;;26.45;43.06;94084.94;5017891;28;7238;-64
2023/05/01 09:00:03;;;;;;;;;;;;;;;26.42;42.68;94086.75;5000773;28;7044;-64
2023/05/01 09:02:50;;;;;;;;;;;;;;;26.44;43.29;94086.22;5021081;28;9096;-64
2023/05/01 09:05:19;;;;;;;;;;;;;;;26.43;42.65;94081.97;4996313;28;7063;-65
2023/05/01 09:08:23;;;;;;;;;;;;;;;26.43;43.31;94087.47;5012169;28;8951;-64
2023/05/01 09:11:02;;;;;;;;;;;;;;;26.41;42.61;94088.00;4955331;28;7233;-64
2023/05/01 09:13:43;;;;;;;;;;;;;;;26.42;43.31;94086.75;4956321;28;7266;-64
2023/05/01 09:16:20;;;;;;;;;;;;;;;26.42;43.13;94097.78;4940598;28;9010;-64
2023/05/01 09:18:58;;;;;;;;;;;;;;;26.44;43.27;94097.25;4945152;28;10404;-64
2023/05/01 09:21:30;;;;;;;;;;;;;;;26.43;42.67;94096.50;4953680;28;9333;-65
2023/05/01 09:24:07;;;;;;;;;;;;;;;26.45;42.85;94102.22;4956114;28;9064;-65
2023/05/01 09:26:42;;;;;;;;;;;;;;;26.48;43.20;94105.97;4949122;28;9052;-64
2023/05/01 09:29:09;;;;;;;;;;;;;;;26.48;42.69;94101.19;4951754;28;7031;-64
2023/05/01 09:31:36;;;;;;;;;;;;;;;26.51;43.34;94110.44;4958366;28;9384;-65
2023/05/01 09:34:07;;;;;;;;;;;;;;;26.51;42.79;94104.94;4954389;28;9415;-64
2023/05/01 09:36:46;;;;;;;;;;;;;;;26.50;42.79;94106.19;4962974;28;9298;-65
2023/05/01 09:39:23;;;;;;;;;;;;;;;26.53;43.50;94108.66;4972731;28;7111;-64
2023/05/01 09:41:51;;;;;;;;;;;;;;;26.54;43.10;94106.63;4997684;28;9634;-65
2023/05/01 09:44:18;;;;;;;;;;;;;;;26.54;42.59;94103.84;5020067;28;9158;-64
2023/05/01 09:46:44;;;;;;;;;;;;;;;26.58;43.41;94109.81;5024532;28;7024;-65
2023/05/01 09:49:14;;;;;;;;;;;;;;;26.58;42.56;94105.06;5024752;28;7027;-65
2023/05/01 09:52:10;;;;;;;;;;;;;;;26.59;42.98;94105.81;5028201;28;8666;-64
2023/05/01 09:54:46;;;;;;;;;;;;;;;26.58;42.61;94107.06;5036552;28;8947;-64
2023/05/01 09:57:16;;;;;;;;;;;;;;;26.57;43.27;94111.09;5023444;28;9112;-64
2023/05/01 10:00:07;;;;;;;;;;;;;;;26.58;42.71;94109.81;5026480;28;8730;-62
2023/05/01 10:03:12;;;;;;;;;;;;;;;26.58;43.23;94104.28;5022232;28;7390;-62
2023/05/01 10:05:44;;;;;;;;;;;;;;;26.56;43.52;94104.06;4983828;28;7370;-62
2023/05/01 10:08:26;;;;;;;;;;;;;;;26.58;43.69;94109.81;4963073;28;9314;-62
2023/05/01 10:11:11;;;;;;;;;;;;;;;26.58;43.63;94107.06;4984677;28;7242;-62
2023/05/01 10:14:04;;;;;;;;;;;;;;;26.59;43.91;94106.56;4968032;28;7290;-62
2023/05/01 10:16:39;;;;;;;;;;;;;;;26.61;43.92;94101.25;4966862;28;8713;-63
2023/05/01 10:19:05;;;;;;;;;;;;;;;26.59;43.81;94103.03;4987556;28;9103;-62
2023/05/01 10:21:41;;;;;;;;;;;;;;;26.58;44.14;94104.28;4968761;28;8909;-62
2023/05/01 10:24:08;;;;;;;;;;;;;;;26.57;44.35;94106.34;4978920;28;8966;-62
2023/05/01 10:26:36;;;;;;;;;;;;;;;26.54;44.11;94101.84;4972667;28;7306;-63
2023/05/01 10:29:10;;;;;;;;;;;;;;;26.52;44.32;94106.41;4981103;28;7277;-62
2023/05/01 10:31:40;;;;;;;;;;;;;;;26.50;44.95;94103.41;4986239;28;6999;-63
2023/05/01 10:34:19;;;;;;;;;;;;;;;26.50;44.25;94098.66;4978897;28;9200;-62
2023/05/01 10:37:11;;;;;;;;;;;;;;;26.52;45.22;94100.88;4979731;28;9309;-62
2023/05/01 10:39:57;;;;;;;;;;;;;;;26.54;45.06;94103.84;4972125;28;7249;-63
2023/05/01 10:43:16;;;;;;;;;;;;;;;26.55;44.77;94100.59;5011630;28;9057;-63
2023/05/01 10:46:19;;;;;;;;;;;;;;;26.55;44.79;94099.84;5038283;28;8500;-63
2023/05/01 10:49:02;;;;;;;;;;;;;;;26.55;45.29;94088.81;5014911;28;9044;-63
2023/05/01 10:52:07;;;;;;;;;;;;;;;26.56;44.90;94096.56;5031482;28;9037;-63
2023/05/01 10:54:35;;;;;;;;;;;;;;;26.58;44.95;94087.75;5051506;28;9196;-63
2023/05/01 10:57:02;;;;;;;;;;;;;;;26.59;44.57;94090.00;5029574;28;9077;-63
2023/05/01 11:00:01;;;;;;;;;;;;;;;26.62;45.01;94088.94;5021867;28;8745;-63
2023/05/01 11:02:29;;;;;;;;;;;;;;;26.61;44.78;94086.72;5027968;28;7357;-63
2023/05/01 11:05:14;;;;;;;;;;;;;;;26.63;44.34;94089.69;5026064;28;7241;-63
2023/05/01 11:08:17;;;;;;;;;;;;;;;26.66;44.54;94094.91;5023004;28;7302;-62
2023/05/01 11:10:45;;;;;;;;;;;;;;;26.66;44.47;94091.41;5023686;28;7220;-63
2023/05/01 11:17:23;;;;;;;;;;;;;;;26.65;44.41;94081.63;5020953;28;9060;-62
2023/05/01 11:19:51;;;;;;;;;;;;;;;26.64;44.28;94080.88;5004991;28;9821;-63
2023/05/01 11:22:18;;;;;;;;;;;;;;;26.65;45.05;94087.91;5015406;28;7258;-62
2023/05/01 11:24:47;;;;;;;;;;;;;;;26.65;44.67;94076.84;5016006;28;9019;-63
2023/05/01 11:27:46;;;;;;;;;;;;;;;26.64;44.14;94083.63;5011666;28;7145;-63
2023/05/01 11:30:23;;;;;;;;;;;;;;;26.62;44.95;94077.91;4950489;28;9134;-63
2023/05/01 11:32:50;;;;;;;;;;;;;;;26.66;44.40;94077.63;4928392;28;8193;-62
2023/05/01 11:35:31;;;;;;;;;;;;;;;26.67;44.45;94079.09;4939242;28;8951;-63
2023/05/01 11:38:17;;;;;;;;;;;;;;;26.69;44.69;94076.53;4935088;28;7272;-62
2023/05/01 11:40:44;;;;;;;;;;;;;;;26.70;44.65;94086.31;4934546;28;7040;-62
2023/05/01 11:43:23;;;;;;;;;;;;;;;26.69;44.11;94077.28;4941621;28;8879;-62
2023/05/01 11:46:03;;;;;;;;;;;;;;;26.69;44.36;94085.56;4946301;28;7129;-63
2023/05/01 11:48:39;;;;;;;;;;;;;;;26.67;44.06;94081.84;4951174;28;8823;-63
2023/05/01 11:51:16;;;;;;;;;;;;;;;26.68;44.62;94077.84;4944678;28;7597;-63
2023/05/01 11:53:58;;;;;;;;;;;;;;;26.68;44.62;94086.09;4944990;28;7088;-62
2023/05/01 11:56:56;;;;;;;;;;;;;;;26.66;44.45;94083.88;4943542;28;7344;-61
2023/05/01 11:59:46;;;;;;;;;;;;;;;26.68;43.80;94088.88;4930643;28;7054;-62
2023/05/01 12:02:24;;;;;;;;;;;;;;;26.67;44.43;94090.88;4931638;28;7121;-62
2023/05/01 12:04:50;;;;;;;;;;;;;;;26.63;44.42;94095.94;4934163;28;7204;-62
2023/05/01 12:07:25;;;;;;;;;;;;;;;26.61;44.60;94092.22;5021353;28;7043;-62
2023/05/01 12:09:52;;;;;;;;;;;;;;;26.65;44.19;94103.69;5019773;28;7676;-61
2023/05/01 12:12:19;;;;;;;;;;;;;;;26.64;44.77;94096.72;5030872;28;6919;-61
2023/05/01 12:14:48;;;;;;;;;;;;;;;26.64;44.25;94091.91;5019754;28;9043;-62
2023/05/01 12:17:14;;;;;;;;;;;;;;;26.67;44.03;94098.41;5028762;28;7464;-61
2023/05/01 12:19:50;;;;;;;;;;;;;;;26.66;44.44;94094.16;5027772;28;7029;-62
2023/05/01 12:22:16;;;;;;;;;;;;;;;26.65;44.41;94106.47;5027655;28;8947;-62
2023/05/01 12:24:52;;;;;;;;;;;;;;;26.67;44.10;94107.44;5029579;28;9544;-63
2023/05/01 12:27:22;;;;;;;;;;;;;;;26.68;44.14;94108.19;5009642;28;7114;-63
2023/05/01 12:29:48;;;;;;;;;;;;;;;26.71;43.87;94107.09;5039559;28;9152;-63
2023/05/01 12:32:15;;;;;;;;;;;;;;;26.74;43.86;94111.63;5034284;28;9180;-63
2023/05/01 12:34:44;;;;;;;;;;;;;;;26.71;43.73;94107.09;5027808;28;7080;-63
2023/05/01 12:37:12;;;;;;;;;;;;;;;26.67;44.47;94115.69;5024816;28;7281;-62
2023/05/01 12:39:44;;;;;;;;;;;;;;;26.69;43.67;94109.66;5023318;28;7033;-63
2023/05/01 12:42:13;;;;;;;;;;;;;;;26.71;43.86;94109.88;5023552;28;7125;-64
2023/05/01 12:44:41;;;;;;;;;;;;;;;26.70;43.72;94106.38;5030974;28;9196;-64
2023/05/01 12:47:11;;;;;;;;;;;;;;;26.71;43.87;94101.59;5027911;28;7490;-64
2023/05/01 12:49:37;;;;;;;;;;;;;;;26.72;43.53;94100.34;5024525;28;9061;-63
2023/05/01 12:52:09;;;;;;;;;;;;;;;26.72;43.34;94105.84;5035333;28;6995;-64
2023/05/01 12:54:38;;;;;;;;;;;;;;;26.70;43.62;94102.88;5026047;28;7307;-63
2023/05/01 12:57:09;;;;;;;;;;;;;;;26.69;43.02;94102.13;5017812;28;7482;-64
2023/05/01 12:59:38;;;;;;;;;;;;;;;26.70;43.55;94094.59;5037061;28;9470;-64
2023/05/01 13:02:06;;;;;;;;;;;;;;;26.72;43.70;94092.06;5030641;28;8447;-64
2023/05/01 13:04:36;;;;;;;;;;;;;;;26.73;43.48;94104.63;5023369;28;8586;-64
2023/05/01 13:07:11;;;;;;;;;;;;;;;26.72;43.42;94111.38;5032064;28;9121;-64
2023/05/01 13:09:38;;;;;;;;;;;;;;;26.72;43.46;94111.38;5041467;28;8744;-64
2023/05/01 13:12:05;;;;;;;;;;;;;;;26.75;43.51;94118.63;5023411;28;9484;-63
2023/05/01 13:14:37;;;;;;;;;;;;;;;26.71;43.54;94116.13;5031341;28;7224;-63
2023/05/01 13:17:11;;;;;;;;;;;;;;;26.75;43.19;94124.16;5023480;28;9035;-63
2023/05/01 13:19:38;;;;;;;;;;;;;;;26.75;42.81;94116.59;5026991;28;7376;-63
2023/05/01 13:22:05;;;;;;;;;;;;;;;26.72;43.10;94114.88;5028026;28;7322;-63
2023/05/01 13:24:44;;;;;;;;;;;;;;;26.73;43.12;94118.41;5015265;28;6943;-63
2023/05/01 13:27:11;;;;;;;;;;;;;;;26.71;43.58;94123.66;5024214;28;8060;-63
2023/05/01 13:29:40;;;;;;;;;;;;;;;26.69;43.01;94120.69;5027216;28;7199;-63
2023/05/01 13:32:10;;;;;;;;;;;;;;;26.71;43.34;94121.66;5017105;28;9177;-63
2023/05/01 13:34:41;;;;;;;;;;;;;;;26.70;42.93;94119.44;5024764;28;9244;-63
2023/05/01 13:37:17;;;;;;;;;;;;;;;26.70;43.23;94116.66;5024029;28;9199;-63
2023/05/01 13:39:46;;;;;;;;;;;;;;;26.70;43.53;94117.41;5025664;28;9104;-63
2023/05/01 13:42:51;;;;;;;;;;;;;;;26.71;43.31;94115.38;5026523;28;7224;-63
2023/05/01 13:45:23;;;;;;;;;;;;;;;26.72;42.94;94111.38;4991104;28;6860;-63
2023/05/01 13:47:50;;;;;;;;;;;;;;;26.78;43.18;94112.06;4988932;28;7038;-63
2023/05/01 13:50:33;;;;;;;;;;;;;;;26.75;42.91;94113.13;4985696;28;9034;-63
2023/05/01 13:53:29;;;;;;;;;;;;;;;26.76;42.87;94109.06;4986283;28;7069;-63
2023/05/01 13:56:15;;;;;;;;;;;;;;;26.74;42.98;94100.59;4929660;28;7262;-62
2023/05/01 13:59:09;;;;;;;;;;;;;;;26.72;43.14;94103.84;4931948;28;7506;-62
2023/05/01 14:01:59;;;;;;;;;;;;;;;26.71;42.99;94096.06;4946770;28;9673;-62
2023/05/01 14:04:39;;;;;;;;;;;;;;;26.75;43.38;94107.59;4936637;28;7468;-62
2023/05/01 14:07:10;;;;;;;;;;;;;;;26.77;42.69;94110.59;4924997;29;8738;-62
2023/05/01 14:09:42;;;;;;;;;;;;;;;26.76;43.40;94104.31;4935750;29;9007;-63
2023/05/01 14:12:17;;;;;;;;;;;;;;;26.78;43.17;94109.28;4927592;28;7373;-63
2023/05/01 14:14:47;;;;;;;;;;;;;;;26.76;42.75;94104.31;4933603;28;7268;-63
2023/05/01 14:17:16;;;;;;;;;;;;;;;26.74;42.70;94095.81;4951170;28;7160;-63